Imperia, Italia

05:23 PM CEST del 24 Ottobre 2014 (GMT +0200)
Imperia Meteo | Change Station
CLOSE
Current Station
Stazione meteo personale
Location: Imperia, IM
Altitudine: 177 ft
Stazioni meteo nelle vicinanze

Alt. 177 ft 43.89 °N, 8.04 °E | Updated 14 seconds ago

Clear
Sereno
69.4 °F
Sembra 69.4 °F
N
5.8
Vento Variabile Vento da OSO
Gusts 5.8 mph

Oggi
Massima -- | Minima -- °F
--% Possibilità di precip.
Ieri
Massima -- | Minima -- °F
Precip. -- in
7:53 AM 6:30 PM
Luna nuova, 1% visible
Pressione 29.89 in
Visibilità -9999.0 miglia
Nuvole
Punto di rugiada 30 °F
Umidità 23%
Piovosità 0.00 in
Spessore del manto nevoso Non disponibile.
Raggi UV Non disponibile.
Polline Non disponibile.
Qualità dell'aria Non disponibile.
Flu Activity Non disponibile.
METAR LFMN 241500Z 21014KT CAVOK 22/14 Q1012 NOSIG

More Conditions Fewer Conditions

Pressione 29.89 in
Visibilità -9999.0 miglia
Nuvole
Punto di rugiada 30 °F
Umidità 23%
Piovosità 0.00 in
Spessore del manto nevoso Non disponibile.
Raggi UV Non disponibile.
Polline Non disponibile.
Qualità dell'aria Non disponibile.
Flu Activity Non disponibile.
METAR LFMN 241500Z 21014KT CAVOK 22/14 Q1012 NOSIG

More Conditions Fewer Conditions

10-Day Weather Forecast

Almanac

Astronomia

Oct. 24, 2014 Alba Tramonto
Ora attuale 07:53 CEST 18:30 CEST
Crepuscolo civile 07:23 CEST 18:59 CEST
Crepuscolo nautico 06:50 CEST 19:33 CEST
Crepuscolo astronomico 06:16 CEST 20:06 CEST
Luna 08:16 CEST 18:58 CEST
Estensione della luce visibile 11h 35m
Lunghezza del giorno
10h 36m
Tomorrow will be 2m 49s shorter.
Luna nuova, 1% of the Moon is Illuminated
Oggi
Luna nuova
Ott 30
Primo quarto
Nov 6
Luna piena
Nov 14
Ultimo quarto
Nov 22
Nuovo

Gli estremi di oggi

Massime Regione Minime Regione

Community

WunderPhotos

Upload Photos

1,764,588 foto caricate!

WunderBlogs® & News

By Dr. Jeff Masters
Director of Meteorology, Weather Underground
By Kari Strenfel
Meteorologist, Weather Underground
By Christopher C. Burt
Weather Historian, Weather Underground
October 24, 2014
October 24, 2014
October 24, 2014

Nearby

Qualità dell'aria

Not available.

Profondità neve

Not available.

Attività sismica

Città  Distanza Mag. Data & Ora
Non sono state riportate attività sismiche nelle vicinanze.
Minimo Magnitudo Mostrato è 2.5.

Temperature delle acque costiere

Località Temperatura
Nessun dato dalle stazioni

Stazioni meteo nelle vicinanze